sensor_id;sensor_type;location;lat;lon;timestamp;temperature;humidity
22633;DHT22;11483;55.828;37.488;2022-11-25T00:01:15;-3.70;99.90
22633;DHT22;11483;55.828;37.488;2022-11-25T00:03:43;-3.80;99.90
22633;DHT22;11483;55.828;37.488;2022-11-25T00:06:10;-3.80;99.90
22633;DHT22;11483;55.828;37.488;2022-11-25T00:08:36;-3.80;99.90
22633;DHT22;11483;55.828;37.488;2022-11-25T00:11:03;-3.80;99.90
22633;DHT22;11483;55.828;37.488;2022-11-25T00:13:30;-3.80;99.90
22633;DHT22;11483;55.828;37.488;2022-11-25T00:16:00;-3.80;99.90
22633;DHT22;11483;55.828;37.488;2022-11-25T00:18:26;-3.80;99.90
22633;DHT22;11483;55.828;37.488;2022-11-25T00:20:51;-3.80;99.90
22633;DHT22;11483;55.828;37.488;2022-11-25T00:23:17;-3.80;99.90
22633;DHT22;11483;55.828;37.488;2022-11-25T00:25:43;-3.80;99.90
22633;DHT22;11483;55.828;37.488;2022-11-25T00:28:09;-3.80;99.90
22633;DHT22;11483;55.828;37.488;2022-11-25T00:30:34;-3.90;99.90
22633;DHT22;11483;55.828;37.488;2022-11-25T00:33:00;-3.90;99.90
22633;DHT22;11483;55.828;37.488;2022-11-25T00:35:26;-3.90;99.90
22633;DHT22;11483;55.828;37.488;2022-11-25T00:37:52;-3.90;99.90
22633;DHT22;11483;55.828;37.488;2022-11-25T00:40:18;-3.90;99.90
22633;DHT22;11483;55.828;37.488;2022-11-25T00:42:45;-3.90;99.90
22633;DHT22;11483;55.828;37.488;2022-11-25T00:45:29;-3.90;99.90
22633;DHT22;11483;55.828;37.488;2022-11-25T00:47:55;-3.90;99.90
22633;DHT22;11483;55.828;37.488;2022-11-25T00:50:21;-3.90;99.90
22633;DHT22;11483;55.828;37.488;2022-11-25T00:52:47;-3.90;99.90
22633;DHT22;11483;55.828;37.488;2022-11-25T00:55:12;-3.80;99.90
22633;DHT22;11483;55.828;37.488;2022-11-25T00:57:38;-3.90;99.90
22633;DHT22;11483;55.828;37.488;2022-11-25T01:00:05;-3.80;99.90
22633;DHT22;11483;55.828;37.488;2022-11-25T01:02:31;-3.80;99.90
22633;DHT22;11483;55.828;37.488;2022-11-25T01:04:57;-3.80;99.90
22633;DHT22;11483;55.828;37.488;2022-11-25T01:07:23;-3.70;99.90
22633;DHT22;11483;55.828;37.488;2022-11-25T01:09:49;-3.70;99.90
22633;DHT22;11483;55.828;37.488;2022-11-25T01:12:15;-3.70;99.90
22633;DHT22;11483;55.828;37.488;2022-11-25T01:14:41;-3.80;99.90
22633;DHT22;11483;55.828;37.488;2022-11-25T01:17:07;-3.80;99.90
22633;DHT22;11483;55.828;37.488;2022-11-25T01:19:33;-3.70;99.90
22633;DHT22;11483;55.828;37.488;2022-11-25T01:22:05;-3.80;99.90
22633;DHT22;11483;55.828;37.488;2022-11-25T01:24:32;-3.80;99.90
22633;DHT22;11483;55.828;37.488;2022-11-25T01:26:57;-3.70;99.90
22633;DHT22;11483;55.828;37.488;2022-11-25T01:29:23;-3.70;99.90
22633;DHT22;11483;55.828;37.488;2022-11-25T01:31:50;-3.70;99.90
22633;DHT22;11483;55.828;37.488;2022-11-25T01:34:21;-3.70;99.90
22633;DHT22;11483;55.828;37.488;2022-11-25T01:36:48;-3.80;99.90
22633;DHT22;11483;55.828;37.488;2022-11-25T01:39:20;-3.70;99.90
22633;DHT22;11483;55.828;37.488;2022-11-25T01:41:47;-3.80;99.90
22633;DHT22;11483;55.828;37.488;2022-11-25T01:49:59;-3.70;99.90
22633;DHT22;11483;55.828;37.488;2022-11-25T01:52:33;-3.70;99.90
22633;DHT22;11483;55.828;37.488;2022-11-25T01:55:10;-3.80;99.90
22633;DHT22;11483;55.828;37.488;2022-11-25T01:57:50;-3.80;99.90
22633;DHT22;11483;55.828;37.488;2022-11-25T02:00:18;-3.90;99.90
22633;DHT22;11483;55.828;37.488;2022-11-25T02:02:46;-3.80;99.90
22633;DHT22;11483;55.828;37.488;2022-11-25T02:05:17;-3.80;99.90
22633;DHT22;11483;55.828;37.488;2022-11-25T02:07:45;-3.70;99.90
22633;DHT22;11483;55.828;37.488;2022-11-25T02:10:23;-3.70;99.90
22633;DHT22;11483;55.828;37.488;2022-11-25T02:12:50;-3.70;99.90
22633;DHT22;11483;55.828;37.488;2022-11-25T02:15:17;-3.80;99.90
22633;DHT22;11483;55.828;37.488;2022-11-25T02:17:43;-3.70;99.90
22633;DHT22;11483;55.828;37.488;2022-11-25T02:20:14;-3.70;99.90
22633;DHT22;11483;55.828;37.488;2022-11-25T02:25:23;-3.80;99.90
22633;DHT22;11483;55.828;37.488;2022-11-25T02:28:12;-3.70;99.90
22633;DHT22;11483;55.828;37.488;2022-11-25T02:30:38;-3.70;99.90
22633;DHT22;11483;55.828;37.488;2022-11-25T02:33:04;-3.70;99.90
22633;DHT22;11483;55.828;37.488;2022-11-25T02:35:36;-3.70;99.90
22633;DHT22;11483;55.828;37.488;2022-11-25T02:38:12;-3.70;99.90
22633;DHT22;11483;55.828;37.488;2022-11-25T02:40:44;-3.70;99.90
22633;DHT22;11483;55.828;37.488;2022-11-25T02:43:11;-3.80;99.90
22633;DHT22;11483;55.828;37.488;2022-11-25T02:46:01;-3.80;99.90
22633;DHT22;11483;55.828;37.488;2022-11-25T02:48:29;-3.70;99.90
22633;DHT22;11483;55.828;37.488;2022-11-25T02:50:56;-3.70;99.90
22633;DHT22;11483;55.828;37.488;2022-11-25T02:53:22;-3.60;99.90
22633;DHT22;11483;55.828;37.488;2022-11-25T02:55:48;-3.60;99.90
22633;DHT22;11483;55.828;37.488;2022-11-25T02:58:15;-3.60;99.90
22633;DHT22;11483;55.828;37.488;2022-11-25T03:00:41;-3.60;99.90
22633;DHT22;11483;55.828;37.488;2022-11-25T03:03:07;-3.60;99.90
22633;DHT22;11483;55.828;37.488;2022-11-25T03:05:33;-3.60;99.90
22633;DHT22;11483;55.828;37.488;2022-11-25T03:07:59;-3.60;99.90
22633;DHT22;11483;55.828;37.488;2022-11-25T03:10:26;-3.50;99.90
22633;DHT22;11483;55.828;37.488;2022-11-25T03:12:52;-3.50;99.90
22633;DHT22;11483;55.828;37.488;2022-11-25T03:15:18;-3.40;99.90
22633;DHT22;11483;55.828;37.488;2022-11-25T03:17:44;-3.50;99.90
22633;DHT22;11483;55.828;37.488;2022-11-25T03:20:10;-3.50;99.90
22633;DHT22;11483;55.828;37.488;2022-11-25T03:22:38;-3.50;99.90
22633;DHT22;11483;55.828;37.488;2022-11-25T03:25:05;-3.50;99.90
22633;DHT22;11483;55.828;37.488;2022-11-25T03:27:32;-3.60;99.90
22633;DHT22;11483;55.828;37.488;2022-11-25T03:29:58;-3.60;99.90
22633;DHT22;11483;55.828;37.488;2022-11-25T03:32:24;-3.60;99.90
22633;DHT22;11483;55.828;37.488;2022-11-25T03:34:50;-3.50;99.90
22633;DHT22;11483;55.828;37.488;2022-11-25T03:37:16;-3.50;99.90
22633;DHT22;11483;55.828;37.488;2022-11-25T03:39:42;-3.50;99.90
22633;DHT22;11483;55.828;37.488;2022-11-25T03:42:08;-3.60;99.90
22633;DHT22;11483;55.828;37.488;2022-11-25T03:44:34;-3.60;99.90
22633;DHT22;11483;55.828;37.488;2022-11-25T03:47:00;-3.60;99.90
22633;DHT22;11483;55.828;37.488;2022-11-25T03:49:25;-3.60;99.90
22633;DHT22;11483;55.828;37.488;2022-11-25T03:51:51;-3.60;99.90
22633;DHT22;11483;55.828;37.488;2022-11-25T03:54:17;-3.50;99.90
22633;DHT22;11483;55.828;37.488;2022-11-25T03:56:43;-3.50;99.90
22633;DHT22;11483;55.828;37.488;2022-11-25T03:59:09;-3.50;99.90
22633;DHT22;11483;55.828;37.488;2022-11-25T04:01:34;-3.50;99.90
22633;DHT22;11483;55.828;37.488;2022-11-25T04:04:00;-3.50;99.90
22633;DHT22;11483;55.828;37.488;2022-11-25T04:06:26;-3.50;99.90
22633;DHT22;11483;55.828;37.488;2022-11-25T04:08:52;-3.50;99.90
22633;DHT22;11483;55.828;37.488;2022-11-25T04:11:18;-3.50;99.90
22633;DHT22;11483;55.828;37.488;2022-11-25T04:13:44;-3.40;99.90
22633;DHT22;11483;55.828;37.488;2022-11-25T04:16:24;-3.40;99.90
22633;DHT22;11483;55.828;37.488;2022-11-25T04:18:50;-3.40;99.90
22633;DHT22;11483;55.828;37.488;2022-11-25T04:21:16;-3.40;99.90
22633;DHT22;11483;55.828;37.488;2022-11-25T04:23:42;-3.40;99.90
22633;DHT22;11483;55.828;37.488;2022-11-25T04:26:07;-3.30;99.90
22633;DHT22;11483;55.828;37.488;2022-11-25T04:28:33;-3.40;99.90
22633;DHT22;11483;55.828;37.488;2022-11-25T04:30:59;-3.50;99.90
22633;DHT22;11483;55.828;37.488;2022-11-25T04:33:29;-3.50;99.90
22633;DHT22;11483;55.828;37.488;2022-11-25T04:35:55;-3.40;99.90
22633;DHT22;11483;55.828;37.488;2022-11-25T04:38:21;-3.40;99.90
22633;DHT22;11483;55.828;37.488;2022-11-25T04:40:47;-3.40;99.90
22633;DHT22;11483;55.828;37.488;2022-11-25T04:43:13;-3.40;99.90
22633;DHT22;11483;55.828;37.488;2022-11-25T04:45:39;-3.40;99.90
22633;DHT22;11483;55.828;37.488;2022-11-25T04:48:05;-3.40;99.90
22633;DHT22;11483;55.828;37.488;2022-11-25T04:50:31;-3.50;99.90
22633;DHT22;11483;55.828;37.488;2022-11-25T04:52:57;-3.50;99.90
22633;DHT22;11483;55.828;37.488;2022-11-25T04:55:23;-3.50;99.90
22633;DHT22;11483;55.828;37.488;2022-11-25T04:57:49;-3.50;99.90
22633;DHT22;11483;55.828;37.488;2022-11-25T05:00:15;-3.50;99.90
22633;DHT22;11483;55.828;37.488;2022-11-25T05:02:41;-3.50;99.90
22633;DHT22;11483;55.828;37.488;2022-11-25T05:05:07;-3.50;99.90
22633;DHT22;11483;55.828;37.488;2022-11-25T05:07:33;-3.50;99.90
22633;DHT22;11483;55.828;37.488;2022-11-25T05:09:59;-3.50;99.90
22633;DHT22;11483;55.828;37.488;2022-11-25T05:12:27;-3.50;99.90
22633;DHT22;11483;55.828;37.488;2022-11-25T05:14:53;-3.40;99.90
22633;DHT22;11483;55.828;37.488;2022-11-25T05:17:22;-3.40;99.90
22633;DHT22;11483;55.828;37.488;2022-11-25T05:19:49;-3.40;99.90
22633;DHT22;11483;55.828;37.488;2022-11-25T05:22:18;-3.40;99.90
22633;DHT22;11483;55.828;37.488;2022-11-25T05:24:44;-3.40;99.90
22633;DHT22;11483;55.828;37.488;2022-11-25T05:27:10;-3.30;99.90
22633;DHT22;11483;55.828;37.488;2022-11-25T05:29:37;-3.40;99.90
22633;DHT22;11483;55.828;37.488;2022-11-25T05:32:04;-3.50;99.90
22633;DHT22;11483;55.828;37.488;2022-11-25T05:34:30;-3.40;99.90
22633;DHT22;11483;55.828;37.488;2022-11-25T05:36:56;-3.50;99.90
22633;DHT22;11483;55.828;37.488;2022-11-25T05:39:22;-3.50;99.90
22633;DHT22;11483;55.828;37.488;2022-11-25T05:41:47;-3.50;99.90
22633;DHT22;11483;55.828;37.488;2022-11-25T05:44:13;-3.50;99.90
22633;DHT22;11483;55.828;37.488;2022-11-25T05:46:39;-3.50;99.90
22633;DHT22;11483;55.828;37.488;2022-11-25T05:49:05;-3.50;99.90
22633;DHT22;11483;55.828;37.488;2022-11-25T05:51:31;-3.50;99.90
22633;DHT22;11483;55.828;37.488;2022-11-25T05:53:57;-3.50;99.90
22633;DHT22;11483;55.828;37.488;2022-11-25T05:56:23;-3.40;99.90
22633;DHT22;11483;55.828;37.488;2022-11-25T05:58:49;-3.40;99.90
22633;DHT22;11483;55.828;37.488;2022-11-25T06:01:15;-3.40;99.90
22633;DHT22;11483;55.828;37.488;2022-11-25T06:03:42;-3.50;99.90
22633;DHT22;11483;55.828;37.488;2022-11-25T06:06:09;-3.50;99.90
22633;DHT22;11483;55.828;37.488;2022-11-25T06:08:36;-3.50;99.90
22633;DHT22;11483;55.828;37.488;2022-11-25T06:11:10;-3.40;99.90
22633;DHT22;11483;55.828;37.488;2022-11-25T06:13:37;-3.40;99.90
22633;DHT22;11483;55.828;37.488;2022-11-25T06:16:12;-3.30;99.90
22633;DHT22;11483;55.828;37.488;2022-11-25T06:18:38;-3.30;99.90
22633;DHT22;11483;55.828;37.488;2022-11-25T06:21:05;-3.40;99.90
22633;DHT22;11483;55.828;37.488;2022-11-25T06:23:32;-3.30;99.90
22633;DHT22;11483;55.828;37.488;2022-11-25T06:26:11;-3.30;99.90
22633;DHT22;11483;55.828;37.488;2022-11-25T06:28:37;-3.30;99.90
22633;DHT22;11483;55.828;37.488;2022-11-25T06:31:08;-3.20;99.90
22633;DHT22;11483;55.828;37.488;2022-11-25T06:33:35;-3.30;99.90
22633;DHT22;11483;55.828;37.488;2022-11-25T06:36:03;-3.30;99.90
22633;DHT22;11483;55.828;37.488;2022-11-25T06:38:29;-3.30;99.90
22633;DHT22;11483;55.828;37.488;2022-11-25T06:41:02;-3.30;99.90
22633;DHT22;11483;55.828;37.488;2022-11-25T06:43:29;-3.40;99.90
22633;DHT22;11483;55.828;37.488;2022-11-25T06:48:27;-3.40;99.90
22633;DHT22;11483;55.828;37.488;2022-11-25T06:51:01;-3.40;99.90
22633;DHT22;11483;55.828;37.488;2022-11-25T06:53:28;-3.30;99.90
22633;DHT22;11483;55.828;37.488;2022-11-25T06:58:42;-3.20;99.90
22633;DHT22;11483;55.828;37.488;2022-11-25T07:01:17;-3.10;99.90
22633;DHT22;11483;55.828;37.488;2022-11-25T07:03:49;-3.00;99.90
22633;DHT22;11483;55.828;37.488;2022-11-25T07:06:16;-3.00;99.90
22633;DHT22;11483;55.828;37.488;2022-11-25T07:08:43;-3.10;99.90
22633;DHT22;11483;55.828;37.488;2022-11-25T07:11:16;-3.10;99.90
22633;DHT22;11483;55.828;37.488;2022-11-25T07:13:43;-3.10;99.90
22633;DHT22;11483;55.828;37.488;2022-11-25T07:16:10;-3.10;99.90
22633;DHT22;11483;55.828;37.488;2022-11-25T07:18:37;-3.10;99.90
22633;DHT22;11483;55.828;37.488;2022-11-25T07:21:07;-3.10;99.90
22633;DHT22;11483;55.828;37.488;2022-11-25T07:23:34;-3.10;99.90
22633;DHT22;11483;55.828;37.488;2022-11-25T07:26:04;-3.10;99.90
22633;DHT22;11483;55.828;37.488;2022-11-25T07:28:31;-3.10;99.90
22633;DHT22;11483;55.828;37.488;2022-11-25T07:31:08;-3.10;99.90
22633;DHT22;11483;55.828;37.488;2022-11-25T07:33:36;-3.20;99.90
22633;DHT22;11483;55.828;37.488;2022-11-25T07:36:04;-3.20;99.90
22633;DHT22;11483;55.828;37.488;2022-11-25T07:38:30;-3.20;99.90
22633;DHT22;11483;55.828;37.488;2022-11-25T07:43:31;-3.10;99.90
22633;DHT22;11483;55.828;37.488;2022-11-25T07:46:10;-3.20;99.90
22633;DHT22;11483;55.828;37.488;2022-11-25T07:48:37;-3.20;99.90
22633;DHT22;11483;55.828;37.488;2022-11-25T07:51:03;-3.20;99.90
22633;DHT22;11483;55.828;37.488;2022-11-25T07:53:29;-3.20;99.90
22633;DHT22;11483;55.828;37.488;2022-11-25T07:55:55;-3.20;99.90
22633;DHT22;11483;55.828;37.488;2022-11-25T07:58:21;-3.10;99.90
22633;DHT22;11483;55.828;37.488;2022-11-25T08:00:46;-3.10;99.90
22633;DHT22;11483;55.828;37.488;2022-11-25T08:03:12;-3.10;99.90
22633;DHT22;11483;55.828;37.488;2022-11-25T08:05:38;-3.00;99.90
22633;DHT22;11483;55.828;37.488;2022-11-25T08:08:04;-2.90;99.90
22633;DHT22;11483;55.828;37.488;2022-11-25T08:10:30;-2.90;99.90
22633;DHT22;11483;55.828;37.488;2022-11-25T08:12:55;-2.90;99.90
22633;DHT22;11483;55.828;37.488;2022-11-25T08:15:21;-2.80;99.90
22633;DHT22;11483;55.828;37.488;2022-11-25T08:17:47;-2.80;99.90
22633;DHT22;11483;55.828;37.488;2022-11-25T08:20:17;-2.80;99.90
22633;DHT22;11483;55.828;37.488;2022-11-25T08:22:42;-2.90;99.90
22633;DHT22;11483;55.828;37.488;2022-11-25T08:25:08;-2.90;99.90
22633;DHT22;11483;55.828;37.488;2022-11-25T08:27:34;-3.00;99.90
22633;DHT22;11483;55.828;37.488;2022-11-25T08:30:00;-3.00;99.90
22633;DHT22;11483;55.828;37.488;2022-11-25T08:32:26;-3.00;99.90
22633;DHT22;11483;55.828;37.488;2022-11-25T08:34:52;-2.90;99.90
22633;DHT22;11483;55.828;37.488;2022-11-25T08:37:18;-2.80;99.90
22633;DHT22;11483;55.828;37.488;2022-11-25T08:39:44;-2.90;99.90
22633;DHT22;11483;55.828;37.488;2022-11-25T08:42:09;-2.90;99.90
22633;DHT22;11483;55.828;37.488;2022-11-25T08:44:35;-2.80;99.90
22633;DHT22;11483;55.828;37.488;2022-11-25T08:47:01;-2.70;99.90
22633;DHT22;11483;55.828;37.488;2022-11-25T08:49:27;-2.90;99.90
22633;DHT22;11483;55.828;37.488;2022-11-25T08:51:55;-2.90;99.90
22633;DHT22;11483;55.828;37.488;2022-11-25T08:54:20;-2.90;99.90
22633;DHT22;11483;55.828;37.488;2022-11-25T08:56:46;-2.90;99.90
22633;DHT22;11483;55.828;37.488;2022-11-25T08:59:12;-2.90;99.90
22633;DHT22;11483;55.828;37.488;2022-11-25T09:01:38;-2.90;99.90
22633;DHT22;11483;55.828;37.488;2022-11-25T09:04:04;-2.90;99.90
22633;DHT22;11483;55.828;37.488;2022-11-25T09:06:30;-2.80;99.90
22633;DHT22;11483;55.828;37.488;2022-11-25T09:08:57;-2.80;99.90
22633;DHT22;11483;55.828;37.488;2022-11-25T09:11:24;-2.70;99.90
22633;DHT22;11483;55.828;37.488;2022-11-25T09:13:50;-2.70;99.90
22633;DHT22;11483;55.828;37.488;2022-11-25T09:16:15;-2.60;99.90
22633;DHT22;11483;55.828;37.488;2022-11-25T09:18:41;-2.50;99.90
22633;DHT22;11483;55.828;37.488;2022-11-25T09:21:09;-2.50;99.90
22633;DHT22;11483;55.828;37.488;2022-11-25T09:23:36;-2.50;99.90
22633;DHT22;11483;55.828;37.488;2022-11-25T09:26:03;-2.40;99.90
22633;DHT22;11483;55.828;37.488;2022-11-25T09:28:30;-2.50;99.90
22633;DHT22;11483;55.828;37.488;2022-11-25T09:30:56;-2.50;99.90
22633;DHT22;11483;55.828;37.488;2022-11-25T09:33:21;-2.50;99.90
22633;DHT22;11483;55.828;37.488;2022-11-25T09:35:47;-2.40;99.90
22633;DHT22;11483;55.828;37.488;2022-11-25T09:38:15;-2.40;99.90
22633;DHT22;11483;55.828;37.488;2022-11-25T09:40:55;-2.30;99.90
22633;DHT22;11483;55.828;37.488;2022-11-25T09:54:53;-2.30;99.90
22633;DHT22;11483;55.828;37.488;2022-11-25T09:57:31;-2.30;99.90
22633;DHT22;11483;55.828;37.488;2022-11-25T10:00:11;-2.40;99.90
22633;DHT22;11483;55.828;37.488;2022-11-25T10:03:01;-2.40;99.90
22633;DHT22;11483;55.828;37.488;2022-11-25T10:08:06;-2.40;99.90
22633;DHT22;11483;55.828;37.488;2022-11-25T10:10:57;-2.40;99.90
22633;DHT22;11483;55.828;37.488;2022-11-25T10:16:50;-2.40;99.90
22633;DHT22;11483;55.828;37.488;2022-11-25T10:24:48;-2.50;99.90
22633;DHT22;11483;55.828;37.488;2022-11-25T10:30:25;-2.60;99.90
22633;DHT22;11483;55.828;37.488;2022-11-25T10:33:21;-2.70;99.90
22633;DHT22;11483;55.828;37.488;2022-11-25T10:35:52;-2.70;99.90
22633;DHT22;11483;55.828;37.488;2022-11-25T10:41:22;-2.70;99.90
22633;DHT22;11483;55.828;37.488;2022-11-25T10:43:48;-2.80;99.90
22633;DHT22;11483;55.828;37.488;2022-11-25T10:46:37;-2.80;99.90
22633;DHT22;11483;55.828;37.488;2022-11-25T10:49:23;-2.80;99.90
22633;DHT22;11483;55.828;37.488;2022-11-25T10:51:52;-2.90;99.90
22633;DHT22;11483;55.828;37.488;2022-11-25T10:54:27;-2.80;99.90
22633;DHT22;11483;55.828;37.488;2022-11-25T10:57:01;-2.80;99.90
22633;DHT22;11483;55.828;37.488;2022-11-25T10:59:38;-2.90;99.90
22633;DHT22;11483;55.828;37.488;2022-11-25T11:07:41;-2.90;99.90
22633;DHT22;11483;55.828;37.488;2022-11-25T11:12:53;-2.90;99.90
22633;DHT22;11483;55.828;37.488;2022-11-25T11:15:22;-2.80;99.90
22633;DHT22;11483;55.828;37.488;2022-11-25T11:17:48;-2.80;99.90
22633;DHT22;11483;55.828;37.488;2022-11-25T11:20:29;-2.80;99.90
22633;DHT22;11483;55.828;37.488;2022-11-25T11:23:09;-2.90;99.90
22633;DHT22;11483;55.828;37.488;2022-11-25T11:30:56;-3.00;99.90
22633;DHT22;11483;55.828;37.488;2022-11-25T11:38:59;-3.10;99.90
22633;DHT22;11483;55.828;37.488;2022-11-25T11:41:45;-3.10;99.90
22633;DHT22;11483;55.828;37.488;2022-11-25T11:55:11;-3.10;99.90
22633;DHT22;11483;55.828;37.488;2022-11-25T11:57:48;-3.10;99.90
22633;DHT22;11483;55.828;37.488;2022-11-25T12:00:19;-3.10;99.90
22633;DHT22;11483;55.828;37.488;2022-11-25T12:03:12;-3.10;99.90
22633;DHT22;11483;55.828;37.488;2022-11-25T12:05:40;-3.10;99.90
22633;DHT22;11483;55.828;37.488;2022-11-25T12:11:04;-3.10;99.90
22633;DHT22;11483;55.828;37.488;2022-11-25T12:13:51;-3.10;99.90
22633;DHT22;11483;55.828;37.488;2022-11-25T12:16:35;-3.00;99.90
22633;DHT22;11483;55.828;37.488;2022-11-25T12:19:10;-3.00;99.90
22633;DHT22;11483;55.828;37.488;2022-11-25T12:21:53;-3.10;99.90
22633;DHT22;11483;55.828;37.488;2022-11-25T12:24:47;-3.10;99.90
22633;DHT22;11483;55.828;37.488;2022-11-25T12:27:45;-3.10;99.90
22633;DHT22;11483;55.828;37.488;2022-11-25T12:30:16;-3.20;99.90
22633;DHT22;11483;55.828;37.488;2022-11-25T12:33:22;-3.10;99.90
22633;DHT22;11483;55.828;37.488;2022-11-25T12:41:35;-3.10;99.90
22633;DHT22;11483;55.828;37.488;2022-11-25T12:46:40;-3.20;99.90
22633;DHT22;11483;55.828;37.488;2022-11-25T12:49:18;-3.20;99.90
22633;DHT22;11483;55.828;37.488;2022-11-25T13:00:09;-3.10;99.90
22633;DHT22;11483;55.828;37.488;2022-11-25T13:11:47;-3.10;99.90
22633;DHT22;11483;55.828;37.488;2022-11-25T13:17:12;-3.10;99.90
22633;DHT22;11483;55.828;37.488;2022-11-25T13:19:38;-3.10;99.90
22633;DHT22;11483;55.828;37.488;2022-11-25T13:22:23;-3.10;99.90
22633;DHT22;11483;55.828;37.488;2022-11-25T13:24:51;-3.10;99.90
22633;DHT22;11483;55.828;37.488;2022-11-25T13:32:57;-3.10;99.90
22633;DHT22;11483;55.828;37.488;2022-11-25T13:37:50;-3.00;99.90
22633;DHT22;11483;55.828;37.488;2022-11-25T13:42:56;-3.00;99.90
22633;DHT22;11483;55.828;37.488;2022-11-25T13:45:25;-2.90;99.90
22633;DHT22;11483;55.828;37.488;2022-11-25T13:47:52;-3.00;99.90
22633;DHT22;11483;55.828;37.488;2022-11-25T13:50:23;-2.90;99.90
22633;DHT22;11483;55.828;37.488;2022-11-25T13:57:45;-3.00;99.90
22633;DHT22;11483;55.828;37.488;2022-11-25T14:02:44;-2.90;99.90
22633;DHT22;11483;55.828;37.488;2022-11-25T14:05:35;-2.90;99.90
22633;DHT22;11483;55.828;37.488;2022-11-25T14:17:02;-2.80;99.90
22633;DHT22;11483;55.828;37.488;2022-11-25T14:27:49;-2.70;99.90
22633;DHT22;11483;55.828;37.488;2022-11-25T14:30:17;-2.70;99.90
22633;DHT22;11483;55.828;37.488;2022-11-25T14:35:29;-2.60;99.90
22633;DHT22;11483;55.828;37.488;2022-11-25T14:38:08;-2.60;99.90
22633;DHT22;11483;55.828;37.488;2022-11-25T14:40:59;-2.70;99.90
22633;DHT22;11483;55.828;37.488;2022-11-25T14:43:29;-2.70;99.90
22633;DHT22;11483;55.828;37.488;2022-11-25T14:46:17;-2.80;99.90
22633;DHT22;11483;55.828;37.488;2022-11-25T14:48:55;-2.80;99.90
22633;DHT22;11483;55.828;37.488;2022-11-25T14:51:22;-2.80;99.90
22633;DHT22;11483;55.828;37.488;2022-11-25T14:53:49;-2.80;99.90
22633;DHT22;11483;55.828;37.488;2022-11-25T14:56:28;-2.80;99.90
22633;DHT22;11483;55.828;37.488;2022-11-25T14:58:56;-2.80;99.90
22633;DHT22;11483;55.828;37.488;2022-11-25T15:01:26;-2.80;99.90
22633;DHT22;11483;55.828;37.488;2022-11-25T15:06:56;-2.80;99.90
22633;DHT22;11483;55.828;37.488;2022-11-25T15:09:28;-2.80;99.90
22633;DHT22;11483;55.828;37.488;2022-11-25T15:12:00;-2.80;99.90
22633;DHT22;11483;55.828;37.488;2022-11-25T15:14:36;-2.80;99.90
22633;DHT22;11483;55.828;37.488;2022-11-25T15:19:52;-2.80;99.90
22633;DHT22;11483;55.828;37.488;2022-11-25T15:22:19;-2.90;99.90
22633;DHT22;11483;55.828;37.488;2022-11-25T15:24:47;-2.90;99.90
22633;DHT22;11483;55.828;37.488;2022-11-25T15:29:41;-2.90;99.90
22633;DHT22;11483;55.828;37.488;2022-11-25T15:32:19;-2.80;99.90
22633;DHT22;11483;55.828;37.488;2022-11-25T15:34:47;-2.90;99.90
22633;DHT22;11483;55.828;37.488;2022-11-25T15:37:13;-2.90;99.90
22633;DHT22;11483;55.828;37.488;2022-11-25T15:39:40;-2.90;99.90
22633;DHT22;11483;55.828;37.488;2022-11-25T15:44:52;-3.00;99.90
22633;DHT22;11483;55.828;37.488;2022-11-25T15:47:28;-3.00;99.90
22633;DHT22;11483;55.828;37.488;2022-11-25T15:52:37;-3.00;99.90
22633;DHT22;11483;55.828;37.488;2022-11-25T15:55:30;-3.00;99.90
22633;DHT22;11483;55.828;37.488;2022-11-25T15:57:55;-3.00;99.90
22633;DHT22;11483;55.828;37.488;2022-11-25T16:00:23;-3.00;99.90
22633;DHT22;11483;55.828;37.488;2022-11-25T16:02:51;-3.00;99.90
22633;DHT22;11483;55.828;37.488;2022-11-25T16:05:28;-3.00;99.90
22633;DHT22;11483;55.828;37.488;2022-11-25T16:10:32;-3.00;99.90
22633;DHT22;11483;55.828;37.488;2022-11-25T16:13:26;-3.00;99.90
22633;DHT22;11483;55.828;37.488;2022-11-25T16:15:59;-3.10;99.90
22633;DHT22;11483;55.828;37.488;2022-11-25T16:23:51;-3.10;99.90
22633;DHT22;11483;55.828;37.488;2022-11-25T16:26:49;-3.10;99.90
22633;DHT22;11483;55.828;37.488;2022-11-25T16:29:19;-3.20;99.90
22633;DHT22;11483;55.828;37.488;2022-11-25T16:31:47;-3.20;99.90
22633;DHT22;11483;55.828;37.488;2022-11-25T16:34:18;-3.10;99.90
22633;DHT22;11483;55.828;37.488;2022-11-25T16:36:45;-3.10;99.90
22633;DHT22;11483;55.828;37.488;2022-11-25T16:39:11;-3.10;99.90
22633;DHT22;11483;55.828;37.488;2022-11-25T16:41:37;-3.10;99.90
22633;DHT22;11483;55.828;37.488;2022-11-25T16:44:04;-3.20;99.90
22633;DHT22;11483;55.828;37.488;2022-11-25T16:46:36;-3.20;99.90
22633;DHT22;11483;55.828;37.488;2022-11-25T16:49:09;-3.10;99.90
22633;DHT22;11483;55.828;37.488;2022-11-25T16:51:36;-3.10;99.90
22633;DHT22;11483;55.828;37.488;2022-11-25T16:54:02;-3.10;99.90
22633;DHT22;11483;55.828;37.488;2022-11-25T16:56:29;-3.00;99.90
22633;DHT22;11483;55.828;37.488;2022-11-25T16:58:56;-3.10;99.90
22633;DHT22;11483;55.828;37.488;2022-11-25T17:01:26;-3.10;99.90
22633;DHT22;11483;55.828;37.488;2022-11-25T17:03:52;-3.10;99.90
22633;DHT22;11483;55.828;37.488;2022-11-25T17:06:21;-3.10;99.90
22633;DHT22;11483;55.828;37.488;2022-11-25T17:08:47;-3.10;99.90
22633;DHT22;11483;55.828;37.488;2022-11-25T17:11:34;-3.20;99.90
22633;DHT22;11483;55.828;37.488;2022-11-25T17:14:04;-3.20;99.90
22633;DHT22;11483;55.828;37.488;2022-11-25T17:16:31;-3.20;99.90
22633;DHT22;11483;55.828;37.488;2022-11-25T17:18:58;-3.20;99.90
22633;DHT22;11483;55.828;37.488;2022-11-25T17:21:26;-3.10;99.90
22633;DHT22;11483;55.828;37.488;2022-11-25T17:24:00;-3.10;99.90
22633;DHT22;11483;55.828;37.488;2022-11-25T17:26:39;-3.10;99.90
22633;DHT22;11483;55.828;37.488;2022-11-25T17:29:11;-3.20;99.90
22633;DHT22;11483;55.828;37.488;2022-11-25T17:31:38;-3.20;99.90
22633;DHT22;11483;55.828;37.488;2022-11-25T17:34:04;-3.20;99.90
22633;DHT22;11483;55.828;37.488;2022-11-25T17:36:30;-3.30;99.90
22633;DHT22;11483;55.828;37.488;2022-11-25T17:38:55;-3.30;99.90
22633;DHT22;11483;55.828;37.488;2022-11-25T17:41:23;-3.20;99.90
22633;DHT22;11483;55.828;37.488;2022-11-25T17:43:53;-3.20;99.90
22633;DHT22;11483;55.828;37.488;2022-11-25T17:46:19;-3.30;99.90
22633;DHT22;11483;55.828;37.488;2022-11-25T17:48:45;-3.30;99.90
22633;DHT22;11483;55.828;37.488;2022-11-25T17:51:13;-3.30;99.90
22633;DHT22;11483;55.828;37.488;2022-11-25T17:53:42;-3.30;99.90
22633;DHT22;11483;55.828;37.488;2022-11-25T17:58:40;-3.30;99.90
22633;DHT22;11483;55.828;37.488;2022-11-25T18:01:09;-3.20;99.90
22633;DHT22;11483;55.828;37.488;2022-11-25T18:03:35;-3.20;99.90
22633;DHT22;11483;55.828;37.488;2022-11-25T18:06:01;-3.20;99.90
22633;DHT22;11483;55.828;37.488;2022-11-25T18:08:28;-3.30;99.90
22633;DHT22;11483;55.828;37.488;2022-11-25T18:10:54;-3.30;99.90
22633;DHT22;11483;55.828;37.488;2022-11-25T18:13:20;-3.30;99.90
22633;DHT22;11483;55.828;37.488;2022-11-25T18:15:46;-3.30;99.90
22633;DHT22;11483;55.828;37.488;2022-11-25T18:18:21;-3.30;99.90